createdAt,value
2022-11-27T00:00:41.052Z,5.4
2022-11-27T00:10:41.786Z,5.4
2022-11-27T00:20:42.218Z,5.3
2022-11-27T00:30:42.382Z,5.4
2022-11-27T00:50:43.584Z,5
2022-11-27T01:00:44.084Z,4.8
2022-11-27T01:10:44.699Z,4.6
2022-11-27T01:20:45.708Z,4.3
2022-11-27T01:30:46.199Z,4.4
2022-11-27T01:40:46.410Z,4.3
2022-11-27T01:50:46.953Z,4.2
2022-11-27T02:00:47.170Z,3.8
2022-11-27T02:10:47.816Z,3.6
2022-11-27T02:20:48.470Z,3.6
2022-11-27T02:30:49.340Z,3.5
2022-11-27T02:40:50.028Z,3.1
2022-11-27T02:50:50.302Z,2.9
2022-11-27T03:00:50.438Z,2.7
2022-11-27T03:10:51.413Z,2.4
2022-11-27T03:20:52.445Z,2.3
2022-11-27T03:30:52.664Z,2.4
2022-11-27T03:40:53.159Z,2.3
2022-11-27T03:50:53.559Z,2.1
2022-11-27T04:00:54.470Z,2
2022-11-27T04:10:55.341Z,1.9
2022-11-27T04:20:55.606Z,1.9
2022-11-27T04:30:56.191Z,1.9
2022-11-27T04:40:56.461Z,2.3
2022-11-27T04:50:57.201Z,2.3
2022-11-27T05:00:58.183Z,2.4
2022-11-27T05:10:58.469Z,2.4
2022-11-27T05:20:59.021Z,2.6
2022-11-27T05:30:59.464Z,2.6
2022-11-27T05:41:00.189Z,2.6
2022-11-27T05:51:01.096Z,2.6
2022-11-27T06:01:01.253Z,2.4
2022-11-27T06:11:02.218Z,2.4
2022-11-27T06:31:03.419Z,2.2
2022-11-27T06:41:03.906Z,2.4
2022-11-27T07:01:04.917Z,2.6
2022-11-27T07:11:05.142Z,2.7
2022-11-27T07:21:05.432Z,2.8
2022-11-27T07:31:06.441Z,2.9
2022-11-27T07:41:07.071Z,3.4
2022-11-27T07:51:07.396Z,3.9
2022-11-27T08:01:08.189Z,3.9
2022-11-27T08:11:08.370Z,4.2
2022-11-27T08:21:08.460Z,4.6
2022-11-27T08:31:09.398Z,5.1
2022-11-27T08:41:09.817Z,5.5
2022-11-27T08:51:10.120Z,5.8
2022-11-27T09:01:10.824Z,6.1
2022-11-27T09:11:10.935Z,6.3
2022-11-27T09:21:11.616Z,6.7
2022-11-27T09:31:11.813Z,6.9
2022-11-27T09:41:12.768Z,7
2022-11-27T09:51:13.239Z,7.1
2022-11-27T10:01:14.233Z,7.2
2022-11-27T10:11:14.634Z,7.4
2022-11-27T10:21:14.865Z,7.6
2022-11-27T10:31:15.901Z,7.8
2022-11-27T10:41:41.892Z,7.9
2022-11-27T10:51:16.845Z,8
2022-11-27T11:11:18.084Z,8.1
2022-11-27T11:21:18.475Z,8.2
2022-11-27T11:31:19.067Z,8.4
2022-11-27T11:41:19.937Z,8.5
2022-11-27T11:51:23.802Z,8.8
2022-11-27T12:01:27.128Z,9
2022-11-27T12:11:22.441Z,9.1
2022-11-27T12:21:23.035Z,9.1
2022-11-27T12:31:23.980Z,9.1
2022-11-27T12:41:24.669Z,9.1
2022-11-27T12:51:24.840Z,8.9
2022-11-27T13:11:26.170Z,8.6
2022-11-27T13:21:26.488Z,8.6
2022-11-27T13:31:27.411Z,8.7
2022-11-27T13:41:27.603Z,8.6
2022-11-27T13:51:28.608Z,8.5
2022-11-27T14:01:29.017Z,8.4
2022-11-27T14:11:29.577Z,8.2
2022-11-27T14:21:30.041Z,8.1
2022-11-27T14:31:30.231Z,8.1
2022-11-27T14:41:30.472Z,8.1
2022-11-27T14:51:30.732Z,8
2022-11-27T15:11:54.336Z,7.8
2022-11-27T15:21:32.688Z,7.8
2022-11-27T15:31:32.974Z,7.7
2022-11-27T15:41:33.944Z,7.6
2022-11-27T15:51:34.667Z,7.5
2022-11-27T16:11:36.538Z,7.5
2022-11-27T16:21:36.715Z,7.5
2022-11-27T16:31:37.218Z,7.6
2022-11-27T16:41:38.208Z,7.5
2022-11-27T16:51:38.850Z,7.6
2022-11-27T17:01:39.248Z,7.7
2022-11-27T17:11:39.623Z,7.4
2022-11-27T17:21:40.700Z,7.8
2022-11-27T17:31:41.734Z,7.9
2022-11-27T17:41:42.502Z,7.9
2022-11-27T17:51:43.014Z,7.9
2022-11-27T18:01:43.906Z,7.8
2022-11-27T18:11:44.047Z,7.6
2022-11-27T18:21:44.778Z,7.5
2022-11-27T18:31:45.140Z,7.5
2022-11-27T18:41:46.004Z,7.4
2022-11-27T18:51:46.958Z,7.4
2022-11-27T19:01:47.988Z,7.3
2022-11-27T19:11:48.691Z,7.3
2022-11-27T19:21:49.592Z,7.2
2022-11-27T19:31:49.865Z,7.1
2022-11-27T19:41:50.744Z,7.2
2022-11-27T19:51:50.929Z,7.2
2022-11-27T20:01:51.793Z,7.1
2022-11-27T20:11:52.713Z,7.1
2022-11-27T20:21:52.830Z,6.9
2022-11-27T20:31:53.411Z,7.1
2022-11-27T20:41:54.288Z,7
2022-11-27T20:51:54.860Z,7.1
2022-11-27T21:01:55.188Z,7
2022-11-27T21:21:55.890Z,6.8
2022-11-27T21:31:56.964Z,6.7
2022-11-27T21:41:57.525Z,6.6
2022-11-27T21:51:58.022Z,7
2022-11-27T22:01:58.907Z,7
2022-11-27T22:11:59.621Z,7.2
2022-11-27T22:22:00.553Z,7.2
2022-11-27T22:32:01.567Z,7.2
2022-11-27T22:42:02.069Z,7.1
2022-11-27T22:52:02.318Z,7
2022-11-27T23:02:03.247Z,7.2
2022-11-27T23:12:03.836Z,7.2
2022-11-27T23:42:06.177Z,6.8
2022-11-27T23:52:06.763Z,6.7
